Time;durP1;ratioP1;P1;durP2;ratioP2;P2;SDS_P1;SDS_P2;PMS_P1;PMS_P2;Temp;Humidity;BMP_temperature;BMP_pressure;BME280_temperature;BME280_humidity;BME280_pressure;Samples;Min_cycle;Max_cycle;Signal;HPM_P1;HPM_P2
2023/06/25 00:00:44;;;;;;;0.10;0.10;;;;;;;;;;5119213;28;20048;-45
2023/06/25 00:03:11;;;;;;;0.10;0.10;;;;;;;;;;5111349;28;20047;-45
2023/06/25 00:05:37;;;;;;;0.10;0.10;;;;;;;;;;5129413;28;20539;-42
2023/06/25 00:08:02;;;;;;;0.10;0.10;;;;;;;;;;5129286;28;20070;-45
2023/06/25 00:10:28;;;;;;;0.10;0.10;;;;;;;;;;5129480;28;20428;-44
2023/06/25 00:12:53;;;;;;;0.10;0.10;;;;;;;;;;5127922;28;20399;-44
2023/06/25 00:15:19;;;;;;;0.10;0.10;;;;;;;;;;5129291;28;20100;-44
2023/06/25 00:17:47;;;;;;;0.10;0.10;;;;;;;;;;5129605;28;20100;-44
2023/06/25 00:20:14;;;;;;;0.10;0.10;;;;;;;;;;5128866;28;20042;-46
2023/06/25 00:22:39;;;;;;;0.10;0.10;;;;;;;;;;5134510;27;20503;-44
2023/06/25 00:25:13;;;;;;;0.10;0.10;;;;;;;;;;5129258;28;20479;-45
2023/06/25 00:27:38;;;;;;;;;;;;;;;;;;5111199;28;20046;-45
2023/06/25 00:30:04;;;;;;;0.10;0.10;;;;;;;;;;5128747;28;20025;-45
2023/06/25 00:32:30;;;;;;;0.10;0.10;;;;;;;;;;5128732;28;20297;-44
2023/06/25 00:34:58;;;;;;;0.10;0.10;;;;;;;;;;5129091;28;20047;-42
2023/06/25 00:37:23;;;;;;;0.10;0.10;;;;;;;;;;5129267;28;20081;-45
2023/06/25 00:39:49;;;;;;;0.10;0.10;;;;;;;;;;5125659;28;20066;-45
2023/06/25 00:42:15;;;;;;;0.10;0.10;;;;;;;;;;5108539;28;20443;-44
2023/06/25 00:44:41;;;;;;;0.10;0.10;;;;;;;;;;5107598;28;20441;-44
2023/06/25 00:47:08;;;;;;;0.10;0.10;;;;;;;;;;5090082;28;20488;-46
2023/06/25 00:49:34;;;;;;;0.10;0.10;;;;;;;;;;5089378;28;20420;-43
2023/06/25 00:52:00;;;;;;;0.10;0.10;;;;;;;;;;5108449;28;20047;-44
2023/06/25 00:54:25;;;;;;;0.10;0.10;;;;;;;;;;5108020;28;20522;-45
2023/06/25 00:56:51;;;;;;;0.10;0.10;;;;;;;;;;5120810;28;20100;-45
2023/06/25 00:59:17;;;;;;;0.10;0.10;;;;;;;;;;5127295;28;20043;-45
2023/06/25 01:01:48;;;;;;;0.10;0.10;;;;;;;;;;5109529;28;20044;-43
2023/06/25 01:04:19;;;;;;;0.10;0.10;;;;;;;;;;5107959;28;20047;-45
2023/06/25 01:06:47;;;;;;;0.10;0.10;;;;;;;;;;5108039;28;20120;-43
2023/06/25 01:09:14;;;;;;;0.10;0.10;;;;;;;;;;5107529;28;20085;-41
2023/06/25 01:11:39;;;;;;;0.10;0.10;;;;;;;;;;5107665;28;20476;-44
2023/06/25 01:14:05;;;;;;;0.10;0.10;;;;;;;;;;5107682;28;20054;-43
2023/06/25 01:16:30;;;;;;;0.10;0.10;;;;;;;;;;5107884;28;20100;-45
2023/06/25 01:19:02;;;;;;;0.10;0.10;;;;;;;;;;5107289;28;20059;-46
2023/06/25 01:21:31;;;;;;;0.10;0.10;;;;;;;;;;5131138;27;20046;-43
2023/06/25 01:23:56;;;;;;;0.10;0.10;;;;;;;;;;5147976;27;20047;-43
2023/06/25 01:26:22;;;;;;;0.10;0.10;;;;;;;;;;5128801;27;20543;-46
2023/06/25 01:28:47;;;;;;;0.10;0.10;;;;;;;;;;5128303;28;20047;-46
2023/06/25 01:31:13;;;;;;;0.10;0.10;;;;;;;;;;5114071;28;20066;-43
2023/06/25 01:33:38;;;;;;;0.10;0.10;;;;;;;;;;5121449;28;20131;-44
2023/06/25 01:36:04;;;;;;;0.10;0.10;;;;;;;;;;5128134;28;20043;-45
2023/06/25 01:38:29;;;;;;;0.10;0.10;;;;;;;;;;5128255;28;20194;-47
2023/06/25 01:40:55;;;;;;;0.10;0.10;;;;;;;;;;5128179;28;20054;-46
2023/06/25 01:43:20;;;;;;;0.10;0.10;;;;;;;;;;5128858;28;20116;-42
2023/06/25 01:45:46;;;;;;;0.10;0.10;;;;;;;;;;5128621;28;20460;-46
2023/06/25 01:48:12;;;;;;;0.10;0.10;;;;;;;;;;5128675;28;20454;-46
2023/06/25 01:50:38;;;;;;;0.10;0.10;;;;;;;;;;5119476;27;20078;-42
2023/06/25 01:53:03;;;;;;;0.20;0.20;;;;;;;;;;5108624;28;20048;-44
2023/06/25 01:55:29;;;;;;;0.10;0.10;;;;;;;;;;5108416;28;20442;-45
2023/06/25 01:57:55;;;;;;;0.10;0.10;;;;;;;;;;5114831;28;20104;-43
2023/06/25 02:00:20;;;;;;;0.10;0.10;;;;;;;;;;5128364;28;20083;-45
2023/06/25 02:02:46;;;;;;;0.10;0.10;;;;;;;;;;5128977;28;20051;-45
2023/06/25 02:05:11;;;;;;;0.32;0.32;;;;;;;;;;5128592;27;20407;-45
2023/06/25 02:07:37;;;;;;;0.10;0.10;;;;;;;;;;5127695;28;20482;-44
2023/06/25 02:10:03;;;;;;;0.10;0.10;;;;;;;;;;5127898;28;20205;-45
2023/06/25 02:12:28;;;;;;;0.10;0.10;;;;;;;;;;5128834;28;20772;-44
2023/06/25 02:14:54;;;;;;;0.10;0.10;;;;;;;;;;5109877;28;20051;-45
2023/06/25 02:17:19;;;;;;;0.10;0.10;;;;;;;;;;5128585;28;20471;-47
2023/06/25 02:19:45;;;;;;;0.10;0.10;;;;;;;;;;5129036;27;20121;-45
2023/06/25 02:22:10;;;;;;;0.10;0.10;;;;;;;;;;5140873;27;20380;-43
2023/06/25 02:24:36;;;;;;;0.10;0.10;;;;;;;;;;5128737;27;20048;-46
2023/06/25 02:27:01;;;;;;;0.10;0.10;;;;;;;;;;5128440;28;20047;-50
2023/06/25 02:29:27;;;;;;;0.10;0.10;;;;;;;;;;5110354;28;20201;-50
2023/06/25 02:31:52;;;;;;;0.10;0.10;;;;;;;;;;5128520;28;20051;-50
2023/06/25 02:34:18;;;;;;;0.10;0.10;;;;;;;;;;5128123;28;20047;-50
2023/06/25 02:36:43;;;;;;;0.10;0.10;;;;;;;;;;5128351;28;20402;-49
2023/06/25 02:39:09;;;;;;;0.10;0.10;;;;;;;;;;5128210;28;20411;-50
2023/06/25 02:41:34;;;;;;;0.10;0.10;;;;;;;;;;5127991;28;20058;-50
2023/06/25 02:44:00;;;;;;;0.10;0.10;;;;;;;;;;5127661;28;20059;-50
2023/06/25 02:46:25;;;;;;;0.10;0.10;;;;;;;;;;5128179;28;20411;-50
2023/06/25 02:48:51;;;;;;;0.10;0.10;;;;;;;;;;5128643;28;20047;-50
2023/06/25 02:51:16;;;;;;;0.10;0.10;;;;;;;;;;5128516;28;20049;-49
2023/06/25 02:53:42;;;;;;;0.10;0.10;;;;;;;;;;5128732;28;20058;-50
2023/06/25 02:56:07;;;;;;;0.10;0.10;;;;;;;;;;5128413;28;20421;-48
2023/06/25 02:58:33;;;;;;;0.10;0.10;;;;;;;;;;5127886;28;20047;-50
2023/06/25 03:00:59;;;;;;;0.10;0.10;;;;;;;;;;5127437;28;20043;-50
2023/06/25 03:03:24;;;;;;;0.10;0.10;;;;;;;;;;5128465;28;20130;-50
2023/06/25 03:05:50;;;;;;;0.10;0.10;;;;;;;;;;5127995;28;20399;-49
2023/06/25 03:08:15;;;;;;;0.10;0.10;;;;;;;;;;5109321;28;20051;-48
2023/06/25 03:10:41;;;;;;;0.10;0.10;;;;;;;;;;5127965;28;20050;-49
2023/06/25 03:13:06;;;;;;;0.10;0.10;;;;;;;;;;5127702;28;20043;-48
2023/06/25 03:15:32;;;;;;;0.10;0.10;;;;;;;;;;5127749;28;20043;-50
2023/06/25 03:17:57;;;;;;;0.10;0.10;;;;;;;;;;5128537;27;20463;-50
2023/06/25 03:20:23;;;;;;;0.10;0.10;;;;;;;;;;5123955;27;20479;-49
2023/06/25 03:22:49;;;;;;;0.28;0.10;;;;;;;;;;5131853;28;20047;-50
2023/06/25 03:25:14;;;;;;;0.10;0.10;;;;;;;;;;5131242;28;20092;-50
2023/06/25 03:27:40;;;;;;;0.10;0.10;;;;;;;;;;5131651;27;20058;-49
2023/06/25 03:30:06;;;;;;;0.10;0.10;;;;;;;;;;5125781;27;20079;-50
2023/06/25 03:32:32;;;;;;;0.10;0.10;;;;;;;;;;5092761;28;20048;-50
2023/06/25 03:34:59;;;;;;;0.10;0.10;;;;;;;;;;5110569;28;20059;-48
2023/06/25 03:37:24;;;;;;;0.10;0.10;;;;;;;;;;5125093;28;20047;-50
2023/06/25 03:39:50;;;;;;;0.10;0.10;;;;;;;;;;5130247;28;20072;-49
2023/06/25 03:42:15;;;;;;;0.10;0.10;;;;;;;;;;5131245;28;20513;-50
2023/06/25 03:44:45;;;;;;;0.20;0.20;;;;;;;;;;5129376;28;20047;-50
2023/06/25 03:47:10;;;;;;;0.20;0.20;;;;;;;;;;5130558;28;20373;-51
2023/06/25 03:49:36;;;;;;;0.10;0.10;;;;;;;;;;5130271;28;20053;-49
2023/06/25 03:52:01;;;;;;;0.10;0.10;;;;;;;;;;5131046;28;20047;-49
2023/06/25 03:54:27;;;;;;;0.10;0.10;;;;;;;;;;5130734;28;20685;-49
2023/06/25 03:56:52;;;;;;;0.10;0.10;;;;;;;;;;5130519;28;20483;-50
2023/06/25 03:59:18;;;;;;;0.10;0.10;;;;;;;;;;5130618;28;20054;-48
2023/06/25 04:01:43;;;;;;;0.10;0.10;;;;;;;;;;5130249;28;20051;-49
2023/06/25 04:04:09;;;;;;;0.10;0.10;;;;;;;;;;5130578;28;20054;-50
2023/06/25 04:06:35;;;;;;;0.10;0.10;;;;;;;;;;5130458;28;20050;-49
2023/06/25 04:09:00;;;;;;;0.10;0.10;;;;;;;;;;5130058;28;20050;-49
2023/06/25 04:11:25;;;;;;;0.10;0.10;;;;;;;;;;5129827;28;20047;-50
2023/06/25 04:13:51;;;;;;;0.10;0.10;;;;;;;;;;5130037;28;20591;-49
2023/06/25 04:16:16;;;;;;;0.10;0.10;;;;;;;;;;5130482;28;20376;-50
2023/06/25 04:18:42;;;;;;;0.10;0.10;;;;;;;;;;5130235;27;20043;-50
2023/06/25 04:21:07;;;;;;;0.10;0.10;;;;;;;;;;5123928;27;20082;-48
2023/06/25 04:23:33;;;;;;;0.10;0.10;;;;;;;;;;5110136;28;20040;-50
2023/06/25 04:25:59;;;;;;;0.10;0.10;;;;;;;;;;5110833;28;20067;-49
2023/06/25 04:28:25;;;;;;;0.10;0.10;;;;;;;;;;5129846;27;20434;-49
2023/06/25 04:30:50;;;;;;;0.10;0.10;;;;;;;;;;5129276;28;20054;-50
2023/06/25 04:33:16;;;;;;;0.10;0.10;;;;;;;;;;5130558;28;20104;-50
2023/06/25 04:35:41;;;;;;;0.10;0.10;;;;;;;;;;5129057;28;20153;-49
2023/06/25 04:38:07;;;;;;;0.10;0.10;;;;;;;;;;5129265;28;20084;-50
2023/06/25 04:40:32;;;;;;;0.10;0.10;;;;;;;;;;5121490;28;20097;-50
2023/06/25 04:42:58;;;;;;;0.10;0.10;;;;;;;;;;5109945;28;20424;-50
2023/06/25 04:45:23;;;;;;;0.10;0.10;;;;;;;;;;5112576;28;20066;-49
2023/06/25 04:47:49;;;;;;;0.10;0.10;;;;;;;;;;5129798;28;20076;-50
2023/06/25 04:50:15;;;;;;;0.10;0.10;;;;;;;;;;5129293;28;20078;-49
2023/06/25 04:52:40;;;;;;;0.10;0.10;;;;;;;;;;5130268;28;20039;-50
2023/06/25 04:55:06;;;;;;;0.10;0.10;;;;;;;;;;5130170;28;20387;-50
2023/06/25 04:57:31;;;;;;;0.10;0.10;;;;;;;;;;5129563;28;20724;-50
2023/06/25 04:59:57;;;;;;;0.10;0.10;;;;;;;;;;5110811;28;20170;-50
2023/06/25 05:02:22;;;;;;;0.10;0.10;;;;;;;;;;5130109;28;20069;-50
2023/06/25 05:04:48;;;;;;;0.10;0.10;;;;;;;;;;5129292;28;20487;-50
2023/06/25 05:07:14;;;;;;;0.10;0.10;;;;;;;;;;5129730;28;20091;-50
2023/06/25 05:09:39;;;;;;;0.10;0.10;;;;;;;;;;5129045;28;20051;-49
2023/06/25 05:12:05;;;;;;;0.10;0.10;;;;;;;;;;5129999;28;20050;-49
2023/06/25 05:14:31;;;;;;;0.10;0.10;;;;;;;;;;5129674;28;20438;-47
2023/06/25 05:16:56;;;;;;;0.10;0.10;;;;;;;;;;5111001;28;20059;-50
2023/06/25 05:19:22;;;;;;;0.10;0.10;;;;;;;;;;5135496;27;20090;-49
2023/06/25 05:21:48;;;;;;;0.10;0.10;;;;;;;;;;5111385;27;20059;-49
2023/06/25 05:24:13;;;;;;;0.10;0.10;;;;;;;;;;5108514;28;20062;-49
2023/06/25 05:26:39;;;;;;;0.10;0.10;;;;;;;;;;5109023;28;20064;-48
2023/06/25 05:29:05;;;;;;;0.10;0.10;;;;;;;;;;5120918;28;20444;-49
2023/06/25 05:31:30;;;;;;;0.10;0.10;;;;;;;;;;5099935;28;20544;-49
2023/06/25 05:33:56;;;;;;;0.32;0.32;;;;;;;;;;5129301;28;20414;-50
2023/06/25 05:36:22;;;;;;;0.10;0.10;;;;;;;;;;5128937;28;20043;-49
2023/06/25 05:38:47;;;;;;;0.10;0.10;;;;;;;;;;5128946;28;20101;-50
2023/06/25 05:41:16;;;;;;;0.10;0.10;;;;;;;;;;5126951;27;20047;-49
2023/06/25 05:43:42;;;;;;;0.10;0.10;;;;;;;;;;5128748;28;20104;-50
2023/06/25 05:46:11;;;;;;;0.17;0.17;;;;;;;;;;5128280;28;20412;-50
2023/06/25 05:48:38;;;;;;;0.10;0.10;;;;;;;;;;5128009;28;20085;-50
2023/06/25 05:51:04;;;;;;;0.10;0.10;;;;;;;;;;5104239;28;20075;-48
2023/06/25 05:53:36;;;;;;;0.10;0.10;;;;;;;;;;5089676;28;20510;-49
2023/06/25 05:56:02;;;;;;;0.17;0.17;;;;;;;;;;5088793;28;20081;-49
2023/06/25 05:58:28;;;;;;;0.10;0.10;;;;;;;;;;5107591;28;20051;-49
2023/06/25 06:00:53;;;;;;;0.10;0.10;;;;;;;;;;5107184;28;20354;-49
2023/06/25 06:03:19;;;;;;;0.10;0.10;;;;;;;;;;5107758;28;20381;-50
2023/06/25 06:05:44;;;;;;;0.10;0.10;;;;;;;;;;5120014;28;20043;-49
2023/06/25 06:08:10;;;;;;;0.10;0.10;;;;;;;;;;5127531;28;20173;-49
2023/06/25 06:10:35;;;;;;;0.10;0.10;;;;;;;;;;5118600;28;20304;-49
2023/06/25 06:13:01;;;;;;;0.10;0.10;;;;;;;;;;5107730;28;20047;-49
2023/06/25 06:15:26;;;;;;;0.10;0.10;;;;;;;;;;5107439;28;20047;-51
2023/06/25 06:17:52;;;;;;;0.20;0.20;;;;;;;;;;5117423;27;20262;-50
2023/06/25 06:20:17;;;;;;;0.35;0.35;;;;;;;;;;5128523;27;20509;-49
2023/06/25 06:22:43;;;;;;;0.10;0.10;;;;;;;;;;5107292;28;20052;-50
2023/06/25 06:25:08;;;;;;;0.10;0.10;;;;;;;;;;5122953;28;20097;-50
2023/06/25 06:27:34;;;;;;;0.10;0.10;;;;;;;;;;5128442;28;20040;-50
2023/06/25 06:30:00;;;;;;;0.10;0.10;;;;;;;;;;5127594;28;20066;-49
2023/06/25 06:32:25;;;;;;;0.10;0.10;;;;;;;;;;5127830;28;20046;-50
2023/06/25 06:34:51;;;;;;;0.10;0.10;;;;;;;;;;5128046;28;20047;-50
2023/06/25 06:37:16;;;;;;;0.10;0.10;;;;;;;;;;5128354;28;20072;-50
2023/06/25 06:39:42;;;;;;;0.10;0.10;;;;;;;;;;5122280;28;20058;-50
2023/06/25 06:42:07;;;;;;;0.10;0.10;;;;;;;;;;5117574;28;20051;-50
2023/06/25 06:44:33;;;;;;;0.10;0.10;;;;;;;;;;5128482;28;20058;-49
2023/06/25 06:46:58;;;;;;;0.10;0.10;;;;;;;;;;5128263;28;20076;-48
2023/06/25 06:49:24;;;;;;;0.10;0.10;;;;;;;;;;5128332;28;20047;-49
2023/06/25 06:51:49;;;;;;;0.10;0.10;;;;;;;;;;5108996;28;20047;-50
2023/06/25 06:54:15;;;;;;;0.10;0.10;;;;;;;;;;5111929;28;20066;-50
2023/06/25 06:56:40;;;;;;;0.10;0.10;;;;;;;;;;5111830;28;20044;-50
2023/06/25 06:59:06;;;;;;;0.10;0.10;;;;;;;;;;5111401;28;20301;-50
2023/06/25 07:01:32;;;;;;;0.10;0.10;;;;;;;;;;5111606;28;20044;-50
2023/06/25 07:03:58;;;;;;;0.10;0.10;;;;;;;;;;5111815;28;20183;-50
2023/06/25 07:06:23;;;;;;;0.10;0.10;;;;;;;;;;5113547;28;20100;-50
2023/06/25 07:08:49;;;;;;;0.10;0.10;;;;;;;;;;5131308;28;20388;-46
2023/06/25 07:11:16;;;;;;;0.10;0.10;;;;;;;;;;5117084;28;20043;-50
2023/06/25 07:13:43;;;;;;;0.10;0.10;;;;;;;;;;5111192;28;20059;-50
2023/06/25 07:16:09;;;;;;;0.10;0.10;;;;;;;;;;5111177;28;20078;-51
2023/06/25 07:18:34;;;;;;;0.10;0.10;;;;;;;;;;5127344;27;20043;-50
2023/06/25 07:21:00;;;;;;;0.10;0.10;;;;;;;;;;5131686;28;20129;-48
2023/06/25 07:23:25;;;;;;;0.10;0.10;;;;;;;;;;5131926;28;20042;-50
2023/06/25 07:25:51;;;;;;;0.20;0.20;;;;;;;;;;5131583;28;20051;-50
2023/06/25 07:28:16;;;;;;;0.10;0.10;;;;;;;;;;5131748;28;20051;-50
2023/06/25 07:30:42;;;;;;;0.10;0.10;;;;;;;;;;5131634;28;20440;-50
2023/06/25 07:33:07;;;;;;;0.10;0.10;;;;;;;;;;5130911;28;20555;-50
2023/06/25 07:35:33;;;;;;;0.10;0.10;;;;;;;;;;5130954;28;20142;-48
2023/06/25 07:37:58;;;;;;;0.10;0.10;;;;;;;;;;5130913;28;20491;-48
2023/06/25 07:40:24;;;;;;;0.10;0.10;;;;;;;;;;5130718;28;20043;-48
2023/06/25 07:42:50;;;;;;;0.10;0.10;;;;;;;;;;5131753;28;20047;-49
2023/06/25 07:45:15;;;;;;;0.10;0.10;;;;;;;;;;5130419;28;20442;-49
2023/06/25 07:47:41;;;;;;;0.10;0.10;;;;;;;;;;5131111;28;20075;-49
2023/06/25 07:50:07;;;;;;;0.10;0.10;;;;;;;;;;5131375;28;20047;-49
2023/06/25 07:52:32;;;;;;;0.20;0.20;;;;;;;;;;5131132;28;20051;-50
2023/06/25 07:54:58;;;;;;;0.10;0.10;;;;;;;;;;5131636;27;20043;-50
2023/06/25 07:57:24;;;;;;;0.10;0.10;;;;;;;;;;5131120;28;20050;-50
2023/06/25 07:59:49;;;;;;;0.10;0.10;;;;;;;;;;5128024;28;20146;-50
2023/06/25 08:02:19;;;;;;;0.10;0.10;;;;;;;;;;5111054;28;20051;-49
2023/06/25 08:04:45;;;;;;;0.10;0.10;;;;;;;;;;5091775;28;20047;-50
2023/06/25 08:07:11;;;;;;;0.10;0.10;;;;;;;;;;5092039;28;20488;-50
2023/06/25 08:09:36;;;;;;;0.10;0.10;;;;;;;;;;5125556;28;20449;-49
2023/06/25 08:12:02;;;;;;;0.10;0.10;;;;;;;;;;5127816;28;20054;-50
2023/06/25 08:14:28;;;;;;;0.10;0.10;;;;;;;;;;5130400;28;20184;-50
2023/06/25 08:16:54;;;;;;;0.10;0.10;;;;;;;;;;5132298;27;20051;-49
2023/06/25 08:19:19;;;;;;;0.10;0.10;;;;;;;;;;5141093;27;20089;-50
2023/06/25 08:21:45;;;;;;;0.10;0.10;;;;;;;;;;5130499;27;20166;-50
2023/06/25 08:24:10;;;;;;;0.10;0.10;;;;;;;;;;5130890;28;20047;-50
2023/06/25 08:26:36;;;;;;;0.10;0.10;;;;;;;;;;5130408;28;20396;-50
2023/06/25 08:29:01;;;;;;;0.10;0.10;;;;;;;;;;5130714;28;20063;-50
2023/06/25 08:31:27;;;;;;;0.10;0.10;;;;;;;;;;5130179;28;20050;-49
2023/06/25 08:33:52;;;;;;;0.10;0.10;;;;;;;;;;5130025;28;20063;-49
2023/06/25 08:36:18;;;;;;;0.10;0.10;;;;;;;;;;5129989;28;20047;-49
2023/06/25 08:38:43;;;;;;;0.10;0.10;;;;;;;;;;5129314;28;20043;-50
2023/06/25 08:41:09;;;;;;;0.10;0.10;;;;;;;;;;5116191;28;20047;-50
2023/06/25 08:43:35;;;;;;;0.10;0.10;;;;;;;;;;5109343;28;20048;-49
2023/06/25 08:46:01;;;;;;;0.10;0.10;;;;;;;;;;5120823;28;20054;-50
2023/06/25 08:48:28;;;;;;;0.10;0.10;;;;;;;;;;5128491;28;20071;-50
2023/06/25 08:50:56;;;;;;;0.10;0.10;;;;;;;;;;5118210;27;20079;-49
2023/06/25 08:53:23;;;;;;;0.10;0.10;;;;;;;;;;5121153;28;20483;-49
2023/06/25 08:55:51;;;;;;;0.10;0.10;;;;;;;;;;5130095;27;20127;-50
2023/06/25 08:58:16;;;;;;;0.10;0.10;;;;;;;;;;5129932;27;20078;-50
2023/06/25 09:00:42;;;;;;;0.10;0.10;;;;;;;;;;5119737;28;20050;-49
2023/06/25 09:03:07;;;;;;;0.10;0.10;;;;;;;;;;5109606;28;20048;-49
2023/06/25 09:05:33;;;;;;;0.10;0.10;;;;;;;;;;5109618;28;20047;-50
2023/06/25 09:07:59;;;;;;;0.10;0.10;;;;;;;;;;5108926;28;20411;-49
2023/06/25 09:10:24;;;;;;;0.10;0.10;;;;;;;;;;5108702;28;20484;-50
2023/06/25 09:12:50;;;;;;;0.10;0.10;;;;;;;;;;5109299;28;20051;-48
2023/06/25 09:15:19;;;;;;;0.10;0.10;;;;;;;;;;5097971;27;20048;-49
2023/06/25 09:17:44;;;;;;;;;;;;;;;;;;5110806;28;20082;-48
2023/06/25 09:20:10;;;;;;;0.10;0.10;;;;;;;;;;5129261;28;20324;-49
2023/06/25 09:22:48;;;;;;;0.10;0.10;;;;;;;;;;5129726;28;20107;-50
2023/06/25 09:25:13;;;;;;;;;;;;;;;;;;5111386;28;20047;-48
2023/06/25 09:27:39;;;;;;;0.10;0.10;;;;;;;;;;5129680;28;20291;-49
2023/06/25 09:30:05;;;;;;;0.10;0.10;;;;;;;;;;5128773;28;20097;-50
2023/06/25 09:32:30;;;;;;;0.10;0.10;;;;;;;;;;5128759;28;20047;-50
2023/06/25 09:34:56;;;;;;;0.10;0.10;;;;;;;;;;5129728;28;20487;-50
2023/06/25 09:37:21;;;;;;;0.10;0.10;;;;;;;;;;5128974;28;20047;-50
2023/06/25 09:39:47;;;;;;;0.10;0.10;;;;;;;;;;5128333;28;20055;-49
2023/06/25 09:42:13;;;;;;;0.10;0.10;;;;;;;;;;5130079;28;20050;-50
2023/06/25 09:44:39;;;;;;;0.10;0.10;;;;;;;;;;5129307;28;20524;-49
2023/06/25 09:47:06;;;;;;;0.10;0.10;;;;;;;;;;5129204;28;20043;-50
2023/06/25 09:49:32;;;;;;;0.10;0.10;;;;;;;;;;5129124;27;20099;-50
2023/06/25 09:52:08;;;;;;;0.10;0.10;;;;;;;;;;5110648;28;20043;-50
2023/06/25 09:54:34;;;;;;;0.10;0.10;;;;;;;;;;5128946;28;20054;-50
2023/06/25 09:57:01;;;;;;;0.10;0.10;;;;;;;;;;5112012;28;20066;-49
2023/06/25 09:59:27;;;;;;;0.10;0.10;;;;;;;;;;5110643;28;20051;-50
2023/06/25 10:01:53;;;;;;;0.15;0.15;;;;;;;;;;5129383;28;20054;-49
2023/06/25 10:04:19;;;;;;;0.10;0.10;;;;;;;;;;5129572;28;20558;-50
2023/06/25 10:06:45;;;;;;;0.10;0.10;;;;;;;;;;5128958;28;20096;-50
2023/06/25 10:09:11;;;;;;;0.10;0.10;;;;;;;;;;5129093;28;20047;-49
2023/06/25 10:11:37;;;;;;;0.10;0.10;;;;;;;;;;5129342;28;20046;-49
2023/06/25 10:14:04;;;;;;;0.10;0.10;;;;;;;;;;5129029;28;20051;-50
2023/06/25 10:16:30;;;;;;;0.10;0.10;;;;;;;;;;5118087;27;20379;-50
2023/06/25 10:19:05;;;;;;;0.10;0.10;;;;;;;;;;5132256;27;20093;-50
2023/06/25 10:21:31;;;;;;;0.10;0.10;;;;;;;;;;5097418;28;20587;-50
2023/06/25 10:23:57;;;;;;;0.10;0.10;;;;;;;;;;5090127;28;20611;-50
2023/06/25 10:26:25;;;;;;;0.10;0.10;;;;;;;;;;5107983;28;20050;-49
2023/06/25 10:28:50;;;;;;;0.10;0.10;;;;;;;;;;5090101;28;20503;-49
2023/06/25 10:31:16;;;;;;;0.13;0.13;;;;;;;;;;5108305;28;20051;-49
2023/06/25 10:33:43;;;;;;;0.10;0.10;;;;;;;;;;5110775;28;20384;-50
2023/06/25 10:36:10;;;;;;;0.10;0.10;;;;;;;;;;5128532;27;20138;-49
2023/06/25 10:38:36;;;;;;;0.10;0.10;;;;;;;;;;5104851;28;20059;-48
2023/06/25 10:41:02;;;;;;;0.10;0.10;;;;;;;;;;5100063;28;20048;-50
2023/06/25 10:43:27;;;;;;;0.10;0.10;;;;;;;;;;5108302;28;20059;-50
2023/06/25 10:45:53;;;;;;;0.10;0.10;;;;;;;;;;5108384;28;20048;-50
2023/06/25 10:48:19;;;;;;;0.10;0.10;;;;;;;;;;5106780;28;20309;-52
2023/06/25 10:50:45;;;;;;;0.10;0.10;;;;;;;;;;5097013;28;20275;-53
2023/06/25 10:53:12;;;;;;;0.10;0.10;;;;;;;;;;5090100;28;20089;-52
2023/06/25 10:55:38;;;;;;;0.10;0.10;;;;;;;;;;5107834;28;20291;-52
2023/06/25 10:58:04;;;;;;;0.10;0.10;;;;;;;;;;5095829;28;20138;-52
2023/06/25 11:00:30;;;;;;;0.10;0.10;;;;;;;;;;5107568;28;20048;-53
2023/06/25 11:02:56;;;;;;;0.10;0.10;;;;;;;;;;5108364;28;20075;-53
2023/06/25 11:05:31;;;;;;;0.10;0.10;;;;;;;;;;5089719;28;20044;-53
2023/06/25 11:07:56;;;;;;;0.10;0.10;;;;;;;;;;5107601;28;20120;-52
2023/06/25 11:10:23;;;;;;;0.10;0.10;;;;;;;;;;5107262;28;20052;-53
2023/06/25 11:12:49;;;;;;;0.10;0.10;;;;;;;;;;5108144;28;20082;-51
2023/06/25 11:15:15;;;;;;;0.10;0.10;;;;;;;;;;5099398;28;20048;-52
2023/06/25 11:17:41;;;;;;;0.10;0.10;;;;;;;;;;5104652;28;20332;-52
2023/06/25 11:20:07;;;;;;;0.10;0.10;;;;;;;;;;5106634;28;20244;-52
2023/06/25 11:22:38;;;;;;;0.10;0.10;;;;;;;;;;5107920;28;20051;-52
2023/06/25 11:25:05;;;;;;;0.10;0.10;;;;;;;;;;5089192;28;20488;-52
2023/06/25 11:27:32;;;;;;;0.10;0.10;;;;;;;;;;5089335;28;20096;-52
2023/06/25 11:29:58;;;;;;;0.10;0.10;;;;;;;;;;5106991;28;20051;-52
2023/06/25 11:32:24;;;;;;;0.13;0.13;;;;;;;;;;5106996;28;20138;-52
2023/06/25 11:34:50;;;;;;;0.10;0.10;;;;;;;;;;5106932;28;20050;-52
2023/06/25 11:37:18;;;;;;;0.10;0.10;;;;;;;;;;5106376;28;20052;-52
2023/06/25 11:39:45;;;;;;;0.10;0.10;;;;;;;;;;5103226;28;20055;-52
2023/06/25 11:42:11;;;;;;;0.10;0.10;;;;;;;;;;5110749;28;20572;-53
2023/06/25 11:44:37;;;;;;;0.10;0.10;;;;;;;;;;5109298;28;20089;-51
2023/06/25 11:47:02;;;;;;;0.10;0.10;;;;;;;;;;5110295;28;20067;-52
2023/06/25 11:49:28;;;;;;;0.10;0.10;;;;;;;;;;5110133;28;20797;-52
2023/06/25 11:51:53;;;;;;;0.10;0.10;;;;;;;;;;5109400;28;20044;-52
2023/06/25 11:54:19;;;;;;;0.22;0.20;;;;;;;;;;5110324;28;20518;-52
2023/06/25 11:56:44;;;;;;;0.10;0.10;;;;;;;;;;5110083;28;20302;-52
2023/06/25 11:59:10;;;;;;;0.10;0.10;;;;;;;;;;5109127;28;20506;-52
2023/06/25 12:01:35;;;;;;;0.10;0.10;;;;;;;;;;5110024;28;20044;-52
2023/06/25 12:04:01;;;;;;;0.10;0.10;;;;;;;;;;5110067;28;20055;-51
2023/06/25 12:06:27;;;;;;;0.10;0.10;;;;;;;;;;5091118;28;20078;-53
2023/06/25 12:08:52;;;;;;;0.10;0.10;;;;;;;;;;5109377;28;20636;-52
2023/06/25 12:11:18;;;;;;;0.13;0.13;;;;;;;;;;5109696;28;20074;-52
2023/06/25 12:13:43;;;;;;;0.10;0.10;;;;;;;;;;5109704;28;20246;-49
2023/06/25 12:16:09;;;;;;;0.10;0.10;;;;;;;;;;5114114;28;20159;-51
2023/06/25 12:18:34;;;;;;;0.10;0.10;;;;;;;;;;5130420;28;20043;-51
2023/06/25 12:21:00;;;;;;;0.10;0.10;;;;;;;;;;5117662;28;20381;-51
2023/06/25 12:23:25;;;;;;;0.10;0.10;;;;;;;;;;5109919;28;20100;-52
2023/06/25 12:25:51;;;;;;;0.10;0.10;;;;;;;;;;5109499;28;20048;-52
2023/06/25 12:28:17;;;;;;;0.10;0.10;;;;;;;;;;5109638;28;20494;-52
2023/06/25 12:30:42;;;;;;;0.10;0.10;;;;;;;;;;5109174;28;20143;-52
2023/06/25 12:33:08;;;;;;;0.10;0.10;;;;;;;;;;5109976;28;20066;-51
2023/06/25 12:35:34;;;;;;;0.10;0.10;;;;;;;;;;5109470;28;20074;-51
2023/06/25 12:37:59;;;;;;;0.10;0.10;;;;;;;;;;5090939;28;20130;-51
2023/06/25 12:40:25;;;;;;;0.10;0.10;;;;;;;;;;5108292;28;20482;-51
2023/06/25 12:42:50;;;;;;;0.10;0.10;;;;;;;;;;5107777;28;20047;-53
2023/06/25 12:45:17;;;;;;;0.10;0.10;;;;;;;;;;5108973;28;20055;-53
2023/06/25 12:47:42;;;;;;;0.10;0.10;;;;;;;;;;5108916;28;20457;-53
2023/06/25 12:50:10;;;;;;;0.10;0.10;;;;;;;;;;5109163;28;20158;-52
2023/06/25 12:52:36;;;;;;;0.10;0.10;;;;;;;;;;5109309;28;20499;-52
2023/06/25 12:55:04;;;;;;;0.10;0.10;;;;;;;;;;5109081;28;20444;-52
2023/06/25 12:57:30;;;;;;;0.10;0.10;;;;;;;;;;5109156;28;20040;-51
2023/06/25 12:59:55;;;;;;;0.10;0.10;;;;;;;;;;5108237;28;20054;-52
2023/06/25 13:02:21;;;;;;;0.10;0.10;;;;;;;;;;5109353;28;20385;-51
2023/06/25 13:04:46;;;;;;;0.10;0.10;;;;;;;;;;5109501;28;20143;-52
2023/06/25 13:07:12;;;;;;;0.20;0.20;;;;;;;;;;5109311;28;20047;-50
2023/06/25 13:09:37;;;;;;;0.10;0.10;;;;;;;;;;5108496;28;20116;-52
2023/06/25 13:12:04;;;;;;;0.10;0.10;;;;;;;;;;5109145;28;20128;-51
2023/06/25 13:14:30;;;;;;;0.10;0.10;;;;;;;;;;5110477;27;20408;-52
2023/06/25 13:16:55;;;;;;;0.10;0.10;;;;;;;;;;5118584;28;20203;-52
2023/06/25 13:19:20;;;;;;;0.10;0.10;;;;;;;;;;5108940;28;20075;-52
2023/06/25 13:21:46;;;;;;;0.10;0.10;;;;;;;;;;5108924;28;20070;-51
2023/06/25 13:24:12;;;;;;;0.10;0.10;;;;;;;;;;5090535;28;20051;-50
2023/06/25 13:26:38;;;;;;;0.10;0.10;;;;;;;;;;5090589;28;20059;-50
2023/06/25 13:29:03;;;;;;;0.10;0.10;;;;;;;;;;5108901;28;20130;-53
2023/06/25 13:31:29;;;;;;;0.10;0.10;;;;;;;;;;5108458;28;20510;-52
2023/06/25 13:33:54;;;;;;;0.10;0.10;;;;;;;;;;5108884;28;20047;-52
2023/06/25 13:36:20;;;;;;;0.10;0.10;;;;;;;;;;5108180;28;20070;-51
2023/06/25 13:38:45;;;;;;;0.10;0.10;;;;;;;;;;5107964;28;20052;-51
2023/06/25 13:41:11;;;;;;;0.10;0.10;;;;;;;;;;5107733;28;20043;-52
2023/06/25 13:43:36;;;;;;;0.10;0.10;;;;;;;;;;5108151;28;20047;-51
2023/06/25 13:46:02;;;;;;;0.10;0.10;;;;;;;;;;5108418;28;20039;-50
2023/06/25 13:48:28;;;;;;;0.10;0.10;;;;;;;;;;5108721;28;20415;-53
2023/06/25 13:50:54;;;;;;;0.10;0.10;;;;;;;;;;5108723;28;20516;-52
2023/06/25 13:53:20;;;;;;;0.10;0.10;;;;;;;;;;5090801;28;20063;-52
2023/06/25 13:55:46;;;;;;;0.10;0.10;;;;;;;;;;5108002;28;20210;-52
2023/06/25 13:58:11;;;;;;;0.10;0.10;;;;;;;;;;5108005;28;20427;-51
2023/06/25 14:00:37;;;;;;;0.10;0.10;;;;;;;;;;5107837;28;20531;-49
2023/06/25 14:03:05;;;;;;;0.10;0.10;;;;;;;;;;5107333;28;20054;-52
2023/06/25 14:05:39;;;;;;;0.10;0.10;;;;;;;;;;5108491;28;20044;-51
2023/06/25 14:08:05;;;;;;;0.10;0.10;;;;;;;;;;5107625;28;20043;-52
2023/06/25 14:10:32;;;;;;;0.10;0.10;;;;;;;;;;5108146;28;20076;-51
2023/06/25 14:12:59;;;;;;;0.10;0.10;;;;;;;;;;5108080;28;20081;-52
2023/06/25 14:15:25;;;;;;;0.10;0.10;;;;;;;;;;5112774;28;20068;-48
2023/06/25 14:17:50;;;;;;;0.10;0.10;;;;;;;;;;5126476;28;20070;-51
2023/06/25 14:20:16;;;;;;;0.10;0.10;;;;;;;;;;5116338;28;20051;-52
2023/06/25 14:22:41;;;;;;;0.10;0.10;;;;;;;;;;5108485;28;20054;-51
2023/06/25 14:25:07;;;;;;;0.10;0.10;;;;;;;;;;5107406;28;20048;-50
2023/06/25 14:27:33;;;;;;;0.10;0.10;;;;;;;;;;5107399;28;20120;-52
2023/06/25 14:29:59;;;;;;;0.10;0.10;;;;;;;;;;5107550;28;20063;-52
2023/06/25 14:32:24;;;;;;;0.10;0.10;;;;;;;;;;5089800;28;20062;-51
2023/06/25 14:34:50;;;;;;;0.10;0.10;;;;;;;;;;5108029;28;20055;-53